createdAt,value
2018-05-31T00:00:47.016Z,42.50
2018-05-31T00:03:16.825Z,42.10
2018-05-31T00:05:49.095Z,42.60
2018-05-31T00:08:18.883Z,42.60
2018-05-31T00:10:50.521Z,41.00
2018-05-31T00:13:20.393Z,40.90
2018-05-31T00:15:50.473Z,41.60
2018-05-31T00:18:21.367Z,41.00
2018-05-31T00:20:51.121Z,42.00
2018-05-31T00:23:21.687Z,42.70
2018-05-31T00:25:52.475Z,42.80
2018-05-31T00:28:23.079Z,41.40
2018-05-31T00:30:52.851Z,41.40
2018-05-31T00:33:23.031Z,43.30
2018-05-31T00:35:52.753Z,43.60
2018-05-31T00:38:22.673Z,42.30
2018-05-31T00:40:54.215Z,42.70
2018-05-31T00:43:25.524Z,42.70
2018-05-31T00:45:56.500Z,42.70
2018-05-31T00:48:27.562Z,41.60
2018-05-31T00:50:58.260Z,41.60
2018-05-31T00:53:28.909Z,40.10
2018-05-31T00:56:10.516Z,41.00
2018-05-31T00:58:42.537Z,40.60
2018-05-31T01:01:12.257Z,40.50
2018-05-31T01:03:41.967Z,40.60
2018-05-31T01:06:11.764Z,39.60
2018-05-31T01:08:41.598Z,39.20
2018-05-31T01:11:11.475Z,39.00
2018-05-31T01:13:41.468Z,37.80
2018-05-31T01:16:11.280Z,37.20
2018-05-31T01:18:41.251Z,36.10
2018-05-31T01:21:12.322Z,38.10
2018-05-31T01:23:42.097Z,37.80
2018-05-31T01:26:11.979Z,36.60
2018-05-31T01:28:41.874Z,37.00
2018-05-31T01:31:12.433Z,35.80
2018-05-31T01:33:42.306Z,35.80
2018-05-31T01:36:12.191Z,35.30
2018-05-31T01:38:49.909Z,36.90
2018-05-31T01:41:20.929Z,35.50
2018-05-31T01:43:51.731Z,35.50
2018-05-31T01:46:21.566Z,35.80
2018-05-31T01:48:51.310Z,36.30
2018-05-31T01:51:22.225Z,36.10
2018-05-31T01:53:53.066Z,36.90
2018-05-31T01:56:23.725Z,36.50
2018-05-31T01:58:54.149Z,36.50
2018-05-31T02:01:24.780Z,35.40
2018-05-31T02:03:55.392Z,35.60
2018-05-31T02:06:26.376Z,35.80
2018-05-31T02:08:57.285Z,36.60
2018-05-31T02:11:30.551Z,37.40
2018-05-31T02:14:01.022Z,36.70
2018-05-31T02:16:33.295Z,37.20
2018-05-31T02:19:04.869Z,36.90
2018-05-31T02:21:34.855Z,36.90
2018-05-31T02:24:05.199Z,37.20
2018-05-31T02:26:36.003Z,37.10
2018-05-31T02:29:06.671Z,38.90
2018-05-31T02:31:38.765Z,41.30
2018-05-31T02:34:09.434Z,41.20
2018-05-31T02:36:40.299Z,43.70
2018-05-31T02:39:11.493Z,43.50
2018-05-31T02:41:41.975Z,43.50
2018-05-31T02:44:12.166Z,45.10
2018-05-31T02:46:42.471Z,46.20
2018-05-31T02:49:13.128Z,46.90
2018-05-31T02:51:43.564Z,46.50
2018-05-31T02:54:14.084Z,47.10
2018-05-31T02:56:44.498Z,46.50
2018-05-31T02:59:14.739Z,47.20
2018-05-31T03:01:44.498Z,47.10
2018-05-31T03:04:15.566Z,48.30
2018-05-31T03:06:45.780Z,48.20
2018-05-31T03:09:16.338Z,48.40
2018-05-31T03:11:46.586Z,49.70
2018-05-31T03:14:17.544Z,49.60
2018-05-31T03:16:47.809Z,49.60
2018-05-31T03:19:18.418Z,50.90
2018-05-31T03:21:48.603Z,50.20
2018-05-31T03:24:18.953Z,50.70
2018-05-31T03:26:49.854Z,51.80
2018-05-31T03:29:21.281Z,51.50
2018-05-31T03:31:51.731Z,53.10
2018-05-31T03:34:22.248Z,52.90
2018-05-31T03:36:52.880Z,53.20
2018-05-31T03:39:23.113Z,54.60
2018-05-31T03:41:53.488Z,52.50
2018-05-31T03:44:24.403Z,53.60
2018-05-31T03:46:54.626Z,53.00
2018-05-31T03:49:26.241Z,53.10
2018-05-31T03:51:56.969Z,53.10
2018-05-31T03:54:27.220Z,52.30
2018-05-31T03:56:57.657Z,53.90
2018-05-31T03:59:28.258Z,53.80
2018-05-31T04:01:58.397Z,53.90
2018-05-31T04:04:29.130Z,54.00
2018-05-31T04:06:59.882Z,54.90
2018-05-31T04:09:30.507Z,55.60
2018-05-31T04:12:00.716Z,55.60
2018-05-31T04:14:30.949Z,56.20
2018-05-31T04:17:01.994Z,57.40
2018-05-31T04:19:32.968Z,57.70
2018-05-31T04:22:03.222Z,57.70
2018-05-31T04:24:34.127Z,58.80
2018-05-31T04:27:04.716Z,58.90
2018-05-31T04:29:35.388Z,59.20
2018-05-31T04:32:06.172Z,59.60
2018-05-31T04:34:37.832Z,59.70
2018-05-31T04:37:08.335Z,59.80
2018-05-31T04:39:38.556Z,60.90
2018-05-31T04:42:09.655Z,60.80
2018-05-31T04:44:41.259Z,62.50
2018-05-31T04:47:11.986Z,62.60
2018-05-31T04:49:42.404Z,61.50
2018-05-31T04:52:12.842Z,61.70
2018-05-31T04:54:43.360Z,61.50
2018-05-31T04:57:14.677Z,62.50
2018-05-31T04:59:45.368Z,63.20
2018-05-31T05:02:16.705Z,61.80
2018-05-31T05:04:47.715Z,62.60
2018-05-31T05:07:18.555Z,62.60
2018-05-31T05:09:50.199Z,62.60
2018-05-31T05:12:20.359Z,62.80
2018-05-31T05:14:52.126Z,63.50
2018-05-31T05:17:23.748Z,63.40
2018-05-31T05:19:58.466Z,64.70
2018-05-31T05:22:29.682Z,65.80
2018-05-31T05:25:00.075Z,66.10
2018-05-31T05:27:30.415Z,66.40
2018-05-31T05:30:00.944Z,67.60
2018-05-31T05:32:31.384Z,68.90
2018-05-31T05:35:02.277Z,70.60
2018-05-31T05:37:33.057Z,71.10
2018-05-31T05:40:03.963Z,72.10
2018-05-31T05:42:34.584Z,72.40
2018-05-31T05:45:05.243Z,72.60
2018-05-31T05:47:36.154Z,73.40
2018-05-31T05:50:06.560Z,74.10
2018-05-31T05:52:37.608Z,74.70
2018-05-31T05:55:08.079Z,74.60
2018-05-31T05:57:38.531Z,75.40
2018-05-31T06:00:09.082Z,75.50
2018-05-31T06:02:41.934Z,76.00
2018-05-31T06:05:12.281Z,76.40
2018-05-31T06:07:42.525Z,77.00
2018-05-31T06:10:13.824Z,78.00
2018-05-31T06:12:44.388Z,78.00
2018-05-31T06:15:15.382Z,79.10
2018-05-31T06:17:47.104Z,79.00
2018-05-31T06:20:17.517Z,79.30
2018-05-31T06:22:48.234Z,79.70
2018-05-31T06:25:18.249Z,80.10
2018-05-31T06:27:48.305Z,81.00
2018-05-31T06:30:18.629Z,81.10
2018-05-31T06:32:48.916Z,81.50
2018-05-31T06:35:19.602Z,81.50
2018-05-31T06:37:50.230Z,81.70
2018-05-31T06:40:20.995Z,81.60
2018-05-31T06:42:51.422Z,81.50
2018-05-31T06:45:21.958Z,81.70
2018-05-31T06:47:52.386Z,82.30
2018-05-31T06:50:22.834Z,82.50
2018-05-31T06:52:53.043Z,82.40
2018-05-31T06:55:23.980Z,82.50
2018-05-31T06:57:54.925Z,82.90
2018-05-31T07:00:25.443Z,83.00
2018-05-31T07:02:55.735Z,83.10
2018-05-31T07:05:26.334Z,83.20
2018-05-31T07:07:56.438Z,83.10
2018-05-31T07:10:26.720Z,83.40
2018-05-31T07:12:59.562Z,83.60
2018-05-31T07:15:29.923Z,83.60
2018-05-31T07:18:00.195Z,84.90
2018-05-31T07:20:31.135Z,84.60
2018-05-31T07:23:01.417Z,83.90
2018-05-31T07:25:32.671Z,84.70
2018-05-31T07:28:04.035Z,84.30
2018-05-31T07:30:34.559Z,84.20
2018-05-31T07:33:04.940Z,84.80
2018-05-31T07:35:35.456Z,84.50
2018-05-31T07:38:06.531Z,84.70
2018-05-31T07:40:36.879Z,84.70
2018-05-31T07:43:07.219Z,84.50
2018-05-31T07:45:37.323Z,85.20
2018-05-31T07:48:07.540Z,84.80
2018-05-31T07:50:37.599Z,85.30
2018-05-31T07:53:08.659Z,85.50
2018-05-31T07:55:40.163Z,85.50
2018-05-31T07:58:10.611Z,85.50
2018-05-31T08:00:40.983Z,85.60
2018-05-31T08:03:11.161Z,85.60
2018-05-31T08:05:41.630Z,85.70
2018-05-31T08:08:11.716Z,85.70
2018-05-31T08:10:42.544Z,86.50
2018-05-31T08:13:13.554Z,86.50
2018-05-31T08:15:43.579Z,86.50
2018-05-31T08:18:13.818Z,86.90
2018-05-31T08:20:44.447Z,87.00
2018-05-31T08:23:14.639Z,87.40
2018-05-31T08:25:44.743Z,88.60
2018-05-31T08:28:15.099Z,88.70
2018-05-31T08:30:45.528Z,88.90
2018-05-31T08:33:15.574Z,87.20
2018-05-31T08:35:45.969Z,87.50
2018-05-31T08:38:16.384Z,86.80
2018-05-31T08:40:46.696Z,87.20
2018-05-31T08:43:16.935Z,87.60
2018-05-31T08:45:47.150Z,87.20
2018-05-31T08:48:17.255Z,87.00
2018-05-31T08:50:47.221Z,87.30
2018-05-31T08:53:17.326Z,87.40
2018-05-31T08:55:47.635Z,87.10
2018-05-31T08:58:18.034Z,88.60
2018-05-31T09:00:48.190Z,89.60
2018-05-31T09:03:18.444Z,89.10
2018-05-31T09:05:48.727Z,88.60
2018-05-31T09:08:18.850Z,88.50
2018-05-31T09:10:49.253Z,88.70
2018-05-31T09:13:19.543Z,88.70
2018-05-31T09:15:49.542Z,88.80
2018-05-31T09:18:19.528Z,88.70
2018-05-31T09:20:49.858Z,86.50
2018-05-31T09:23:20.012Z,86.10
2018-05-31T09:25:50.196Z,86.40
2018-05-31T09:28:20.421Z,86.50
2018-05-31T09:30:50.654Z,86.90
2018-05-31T09:33:20.994Z,87.00
2018-05-31T09:35:51.390Z,86.40
2018-05-31T09:38:21.574Z,86.20
2018-05-31T09:40:51.915Z,86.50
2018-05-31T09:43:22.992Z,86.60
2018-05-31T09:45:53.105Z,86.60
2018-05-31T09:48:23.457Z,86.50
2018-05-31T09:50:53.826Z,86.60
2018-05-31T09:53:25.013Z,86.80
2018-05-31T09:55:55.255Z,86.80
2018-05-31T09:58:25.408Z,86.80
2018-05-31T10:00:56.426Z,86.70
2018-05-31T10:03:26.698Z,86.60
2018-05-31T10:05:56.872Z,86.80
2018-05-31T10:08:26.856Z,87.00
2018-05-31T10:10:57.173Z,86.60
2018-05-31T10:13:27.316Z,86.70
2018-05-31T10:15:57.389Z,86.90
2018-05-31T10:18:27.506Z,86.80
2018-05-31T10:20:57.680Z,86.80
2018-05-31T10:23:27.791Z,87.30
2018-05-31T10:25:59.359Z,86.50
2018-05-31T10:28:30.145Z,86.70
2018-05-31T10:31:00.281Z,86.40
2018-05-31T10:33:30.428Z,86.20
2018-05-31T10:36:00.506Z,86.20
2018-05-31T10:38:30.922Z,86.00
2018-05-31T10:41:01.275Z,86.30
2018-05-31T10:43:31.420Z,86.60
2018-05-31T10:46:01.505Z,87.20
2018-05-31T10:48:31.834Z,86.80
2018-05-31T10:51:01.830Z,86.30
2018-05-31T10:53:31.919Z,87.10
2018-05-31T10:56:02.874Z,87.10
2018-05-31T10:58:33.648Z,87.00
2018-05-31T11:01:03.806Z,88.10
2018-05-31T11:03:34.318Z,89.30
2018-05-31T11:06:04.634Z,88.80
2018-05-31T11:08:34.784Z,88.60
2018-05-31T11:11:05.079Z,89.10
2018-05-31T11:13:35.378Z,88.70
2018-05-31T11:16:05.825Z,88.80
2018-05-31T11:18:37.446Z,88.30
2018-05-31T11:21:08.227Z,89.50
2018-05-31T11:23:38.482Z,89.50
2018-05-31T11:26:09.363Z,89.80
2018-05-31T11:28:39.382Z,89.20
2018-05-31T11:31:09.409Z,89.30
2018-05-31T11:33:39.449Z,88.60
2018-05-31T11:36:09.658Z,89.00
2018-05-31T11:38:39.847Z,89.00
2018-05-31T11:41:10.142Z,89.30
2018-05-31T11:43:41.423Z,89.30
2018-05-31T11:46:11.662Z,89.20
2018-05-31T11:48:41.849Z,88.90
2018-05-31T11:51:13.191Z,89.20
2018-05-31T11:53:43.779Z,89.20
2018-05-31T11:56:14.733Z,89.50
2018-05-31T11:58:45.543Z,89.50
2018-05-31T12:01:16.515Z,89.20
2018-05-31T12:03:47.005Z,89.10
2018-05-31T12:06:17.688Z,89.20
2018-05-31T12:08:47.899Z,89.80
2018-05-31T12:11:22.748Z,89.00
2018-05-31T12:13:57.348Z,89.30
2018-05-31T12:16:30.173Z,89.60
2018-05-31T12:19:00.791Z,89.60
2018-05-31T12:21:31.463Z,89.10
2018-05-31T12:24:02.060Z,88.90
2018-05-31T12:26:33.054Z,90.00
2018-05-31T12:29:03.307Z,90.00
2018-05-31T12:31:34.436Z,89.60
2018-05-31T12:34:04.622Z,89.20
2018-05-31T12:36:34.932Z,89.70
2018-05-31T12:39:05.354Z,89.10
2018-05-31T12:41:35.461Z,88.90
2018-05-31T12:44:06.445Z,88.60
2018-05-31T12:46:36.729Z,88.60
2018-05-31T12:49:07.013Z,88.10
2018-05-31T12:51:37.390Z,87.80
2018-05-31T12:54:07.695Z,87.60
2018-05-31T12:56:38.880Z,86.00
2018-05-31T12:59:09.653Z,86.00
2018-05-31T13:01:39.805Z,86.40
2018-05-31T13:04:10.603Z,84.90
2018-05-31T13:06:40.505Z,84.90
2018-05-31T13:09:10.614Z,85.80
2018-05-31T13:11:40.869Z,84.90
2018-05-31T13:14:11.097Z,85.80
2018-05-31T13:16:41.915Z,85.10
2018-05-31T13:19:11.929Z,84.40
2018-05-31T13:21:42.015Z,82.80
2018-05-31T13:24:12.071Z,82.30
2018-05-31T13:26:42.103Z,82.90
2018-05-31T13:29:12.270Z,83.90
2018-05-31T13:31:42.403Z,83.70
2018-05-31T13:34:12.751Z,83.80
2018-05-31T13:36:42.857Z,83.00
2018-05-31T13:39:13.077Z,83.10
2018-05-31T13:41:43.319Z,82.60
2018-05-31T13:44:13.486Z,83.20
2018-05-31T13:46:44.283Z,82.50
2018-05-31T13:49:14.762Z,82.50
2018-05-31T13:51:44.567Z,81.70
2018-05-31T13:54:25.633Z,82.40
2018-05-31T13:56:55.741Z,82.50
2018-05-31T13:59:26.791Z,82.70
2018-05-31T14:01:56.920Z,82.70
2018-05-31T14:04:27.209Z,80.20
2018-05-31T14:06:58.792Z,80.60
2018-05-31T14:09:30.170Z,80.50
2018-05-31T14:12:00.169Z,79.60
2018-05-31T14:14:30.527Z,80.40
2018-05-31T14:17:00.667Z,80.30
2018-05-31T14:19:31.749Z,82.40
2018-05-31T14:22:02.179Z,81.60
2018-05-31T14:24:33.117Z,80.90
2018-05-31T14:27:04.553Z,80.90
2018-05-31T14:29:35.393Z,81.20
2018-05-31T14:32:05.539Z,81.60
2018-05-31T14:34:37.044Z,80.70
2018-05-31T14:37:08.098Z,80.50
2018-05-31T14:39:38.683Z,80.50
2018-05-31T14:42:08.698Z,80.60
2018-05-31T14:44:40.414Z,82.40
2018-05-31T14:47:10.644Z,81.10
2018-05-31T14:49:40.738Z,80.30
2018-05-31T14:52:10.859Z,80.50
2018-05-31T14:54:41.290Z,81.20
2018-05-31T14:57:11.218Z,80.80
2018-05-31T14:59:41.418Z,80.30
2018-05-31T15:02:11.406Z,81.20
2018-05-31T15:04:41.343Z,81.10
2018-05-31T15:07:11.293Z,82.00
2018-05-31T15:09:42.774Z,82.00
2018-05-31T15:12:13.306Z,82.30
2018-05-31T15:14:46.854Z,81.30
2018-05-31T15:17:17.082Z,80.50
2018-05-31T15:19:49.654Z,78.90
2018-05-31T15:22:19.573Z,78.90
2018-05-31T15:24:50.181Z,77.60
2018-05-31T15:27:20.587Z,77.50
2018-05-31T15:29:51.227Z,76.30
2018-05-31T15:32:21.547Z,76.90
2018-05-31T15:34:51.885Z,77.20
2018-05-31T15:37:21.999Z,76.00
2018-05-31T15:39:52.237Z,76.70
2018-05-31T15:42:22.456Z,77.90
2018-05-31T15:44:52.629Z,77.10
2018-05-31T15:47:22.815Z,76.80
2018-05-31T15:49:52.777Z,77.40
2018-05-31T15:52:23.007Z,77.80
2018-05-31T15:54:53.475Z,77.70
2018-05-31T15:57:23.658Z,78.40
2018-05-31T15:59:53.889Z,78.90
2018-05-31T16:02:24.352Z,78.60
2018-05-31T16:04:54.336Z,78.30
2018-05-31T16:07:24.546Z,78.70
2018-05-31T16:09:55.011Z,78.70
2018-05-31T16:12:25.239Z,77.90
2018-05-31T16:14:55.393Z,78.40
2018-05-31T16:17:26.361Z,77.80
2018-05-31T16:19:56.608Z,77.80
2018-05-31T16:22:26.983Z,77.30
2018-05-31T16:24:57.969Z,77.40
2018-05-31T16:27:28.330Z,78.20
2018-05-31T16:29:59.224Z,76.60
2018-05-31T16:32:29.373Z,76.60
2018-05-31T16:34:59.626Z,77.20
2018-05-31T16:37:29.709Z,76.00
2018-05-31T16:39:59.821Z,75.50
2018-05-31T16:42:29.934Z,75.50
2018-05-31T16:45:00.083Z,75.80
2018-05-31T16:47:30.576Z,75.50
2018-05-31T16:50:01.023Z,73.90
2018-05-31T16:52:31.344Z,73.50
2018-05-31T16:55:01.845Z,74.10
2018-05-31T16:57:31.967Z,74.50
2018-05-31T17:00:02.220Z,74.50
2018-05-31T17:02:32.339Z,75.00
2018-05-31T17:05:02.535Z,73.20
2018-05-31T17:07:32.545Z,73.60
2018-05-31T17:10:02.921Z,74.40
2018-05-31T17:12:33.752Z,73.70
2018-05-31T17:15:03.954Z,73.70
2018-05-31T17:17:34.399Z,73.90
2018-05-31T17:20:04.613Z,73.30
2018-05-31T17:22:35.116Z,73.10
2018-05-31T17:25:06.172Z,73.10
2018-05-31T17:27:36.577Z,73.10
2018-05-31T17:30:06.719Z,72.60
2018-05-31T17:32:37.787Z,72.80
2018-05-31T17:35:08.073Z,72.80
2018-05-31T17:37:38.438Z,71.70
2018-05-31T17:40:08.861Z,72.40
2018-05-31T17:42:38.975Z,73.60
2018-05-31T17:45:09.483Z,73.10
2018-05-31T17:47:39.722Z,72.70
2018-05-31T17:50:10.168Z,71.70
2018-05-31T17:52:40.266Z,71.90
2018-05-31T17:55:10.742Z,72.80
2018-05-31T17:57:41.855Z,74.40
2018-05-31T18:00:12.043Z,74.40
2018-05-31T18:02:42.301Z,72.90
2018-05-31T18:05:13.819Z,73.40
2018-05-31T18:07:44.540Z,74.40
2018-05-31T18:10:15.661Z,71.30
2018-05-31T18:12:45.954Z,72.10
2018-05-31T18:15:16.254Z,70.70
2018-05-31T18:17:46.830Z,71.20
2018-05-31T18:20:16.979Z,71.20
2018-05-31T18:22:47.867Z,71.70
2018-05-31T18:25:17.956Z,72.50
2018-05-31T18:27:48.122Z,70.80
2018-05-31T18:30:19.349Z,70.10
2018-05-31T18:32:50.516Z,69.90
2018-05-31T18:35:21.680Z,71.50
2018-05-31T18:37:52.048Z,71.50
2018-05-31T18:40:23.190Z,69.20
2018-05-31T18:42:53.398Z,69.20
2018-05-31T18:45:23.431Z,68.90
2018-05-31T18:47:53.830Z,69.20
2018-05-31T18:50:24.181Z,68.80
2018-05-31T18:52:54.291Z,68.30
2018-05-31T18:55:24.414Z,66.30
2018-05-31T18:57:54.627Z,67.00
2018-05-31T19:00:24.943Z,65.60
2018-05-31T19:02:55.439Z,66.50
2018-05-31T19:05:26.433Z,61.50
2018-05-31T19:07:56.755Z,61.40
2018-05-31T19:10:27.175Z,57.60
2018-05-31T19:13:02.783Z,59.40
2018-05-31T19:15:34.103Z,60.50
2018-05-31T19:18:04.795Z,60.50
2018-05-31T19:20:35.075Z,59.30
2018-05-31T19:23:06.256Z,59.70
2018-05-31T19:25:36.695Z,59.70
2018-05-31T19:28:06.847Z,59.40
2018-05-31T19:30:42.159Z,58.10
2018-05-31T19:33:12.369Z,57.60
2018-05-31T19:35:47.822Z,59.60
2018-05-31T19:38:17.877Z,61.00
2018-05-31T19:40:48.261Z,60.00
2018-05-31T19:43:23.650Z,60.50
2018-05-31T19:45:54.774Z,59.30
2018-05-31T19:48:25.939Z,59.40
2018-05-31T19:50:56.848Z,58.20
2018-05-31T19:53:32.036Z,58.10
2018-05-31T19:56:03.217Z,57.90
2018-05-31T19:58:38.707Z,57.90
2018-05-31T20:01:14.707Z,57.80
2018-05-31T20:03:45.195Z,57.80
2018-05-31T20:06:16.398Z,56.40
2018-05-31T20:08:46.759Z,57.00
2018-05-31T20:11:16.959Z,56.40
2018-05-31T20:13:47.266Z,55.50
2018-05-31T20:16:17.802Z,56.80
2018-05-31T20:18:47.825Z,56.20
2018-05-31T20:21:18.152Z,56.80
2018-05-31T20:23:48.364Z,54.70
2018-05-31T20:26:18.901Z,55.40
2018-05-31T20:28:50.007Z,54.90
2018-05-31T20:31:20.567Z,54.40
2018-05-31T20:33:51.188Z,53.00
2018-05-31T20:36:22.586Z,53.90
2018-05-31T20:38:52.887Z,54.00
2018-05-31T20:41:23.408Z,53.90
2018-05-31T20:43:54.053Z,52.30
2018-05-31T20:46:24.486Z,53.40
2018-05-31T20:48:54.970Z,53.90
2018-05-31T20:51:25.040Z,53.60
2018-05-31T20:53:56.166Z,53.40
2018-05-31T20:56:25.915Z,53.40
2018-05-31T20:58:56.469Z,52.80
2018-05-31T21:01:26.959Z,52.80
2018-05-31T21:03:58.381Z,51.80
2018-05-31T21:06:28.406Z,51.70
2018-05-31T21:08:58.630Z,51.70
2018-05-31T21:11:28.941Z,52.60
2018-05-31T21:13:59.465Z,52.50
2018-05-31T21:16:30.206Z,52.30
2018-05-31T21:19:00.945Z,51.20
2018-05-31T21:21:31.264Z,51.80
2018-05-31T21:24:01.776Z,52.70
2018-05-31T21:26:31.521Z,53.20
2018-05-31T21:29:01.350Z,51.90
2018-05-31T21:31:31.313Z,50.10
2018-05-31T21:34:01.000Z,52.30
2018-05-31T21:36:31.486Z,50.60
2018-05-31T21:39:01.237Z,50.70
2018-05-31T21:41:31.152Z,50.30
2018-05-31T21:44:00.961Z,49.00
2018-05-31T21:46:31.172Z,50.30
2018-05-31T21:49:01.697Z,49.70
2018-05-31T21:51:32.578Z,49.60
2018-05-31T21:54:02.632Z,49.30
2018-05-31T21:56:32.410Z,48.00
2018-05-31T21:59:02.176Z,48.80
2018-05-31T22:01:32.567Z,48.30
2018-05-31T22:04:05.728Z,49.10
2018-05-31T22:06:36.629Z,49.50
2018-05-31T22:09:08.304Z,50.40
2018-05-31T22:11:40.219Z,49.80
2018-05-31T22:14:11.442Z,51.20
2018-05-31T22:16:42.184Z,50.60
2018-05-31T22:19:12.119Z,49.40
2018-05-31T22:21:42.286Z,47.90
2018-05-31T22:24:13.444Z,48.10
2018-05-31T22:26:44.319Z,48.80
2018-05-31T22:29:14.853Z,47.70
2018-05-31T22:31:45.582Z,47.30
2018-05-31T22:34:16.011Z,49.00
2018-05-31T22:36:47.132Z,48.80
2018-05-31T22:39:18.955Z,49.70
2018-05-31T22:41:49.770Z,49.80
2018-05-31T22:44:19.875Z,51.90
2018-05-31T22:46:50.595Z,49.60
2018-05-31T22:49:20.911Z,49.70
2018-05-31T22:51:51.177Z,49.80
2018-05-31T22:54:22.571Z,49.40
2018-05-31T22:56:53.916Z,49.40
2018-05-31T22:59:24.308Z,48.70
2018-05-31T23:01:55.625Z,47.20
2018-05-31T23:04:25.918Z,45.80
2018-05-31T23:06:56.367Z,46.60
2018-05-31T23:09:26.883Z,46.50
2018-05-31T23:11:57.670Z,47.30
2018-05-31T23:14:28.779Z,49.40
2018-05-31T23:16:59.607Z,49.40
2018-05-31T23:19:33.632Z,48.60
2018-05-31T23:22:03.843Z,48.30
2018-05-31T23:24:34.263Z,48.80
2018-05-31T23:27:04.595Z,48.00
2018-05-31T23:29:34.796Z,48.30
2018-05-31T23:32:05.057Z,49.60
2018-05-31T23:34:35.012Z,49.50
2018-05-31T23:37:06.192Z,49.90
2018-05-31T23:39:36.221Z,49.90
2018-05-31T23:42:06.444Z,49.80
2018-05-31T23:44:36.675Z,47.50
2018-05-31T23:47:06.781Z,48.30
2018-05-31T23:49:37.120Z,48.50
2018-05-31T23:52:07.397Z,48.30
2018-05-31T23:54:37.513Z,48.40
2018-05-31T23:57:07.577Z,45.90
2018-05-31T23:59:37.625Z,47.00
